createdAt,value
2019-05-02T02:13:36.343Z,4.67
2019-05-02T02:16:04.551Z,5.00
2019-05-02T02:18:37.480Z,4.33
2019-05-02T02:21:29.773Z,4.60
2019-05-02T02:24:06.471Z,4.40
2019-05-02T02:26:35.944Z,5.67
2019-05-02T02:29:07.965Z,7.35
2019-05-02T02:31:39.910Z,5.50
2019-05-02T02:34:10.031Z,4.33
2019-05-02T02:36:39.703Z,5.20
2019-05-02T02:39:14.470Z,4.17
2019-05-02T02:41:45.244Z,4.78
2019-05-02T02:44:33.690Z,4.33
2019-05-02T02:47:00.722Z,4.08
2019-05-02T02:49:30.024Z,4.50
2019-05-02T02:52:04.925Z,5.05
2019-05-02T02:54:36.758Z,4.35
2019-05-02T02:57:02.458Z,4.62
2019-05-02T02:59:32.917Z,5.00
2019-05-02T03:02:10.411Z,4.80
2019-05-02T03:04:35.305Z,4.20
2019-05-02T03:07:04.754Z,3.92
2019-05-02T03:09:34.145Z,4.47
2019-05-02T03:12:21.480Z,6.62
2019-05-02T03:14:54.360Z,4.50
2019-05-02T03:17:26.470Z,4.42
2019-05-02T03:20:01.533Z,4.58
2019-05-02T03:22:34.615Z,4.53
2019-05-02T03:25:00.949Z,4.50
2019-05-02T03:27:37.510Z,5.22
2019-05-02T03:30:01.591Z,4.47
2019-05-02T03:32:35.077Z,4.53
2019-05-02T03:35:02.452Z,4.22
2019-05-02T03:37:33.227Z,4.50
2019-05-02T03:40:02.350Z,4.22
2019-05-02T03:42:43.653Z,4.28
2019-05-02T03:45:04.913Z,4.40
2019-05-02T03:47:36.758Z,4.65
2019-05-02T03:50:08.962Z,4.80
2019-05-02T03:52:43.417Z,4.90
2019-05-02T03:55:08.863Z,4.10
2019-05-02T03:57:42.484Z,4.15
2019-05-02T04:00:20.191Z,7.42
2019-05-02T04:02:44.932Z,4.87
2019-05-02T04:05:14.431Z,4.45
2019-05-02T04:07:44.610Z,4.55
2019-05-02T04:10:19.638Z,4.80
2019-05-02T04:12:53.024Z,6.35
2019-05-02T04:15:28.642Z,5.47
2019-05-02T04:17:55.266Z,4.08
2019-05-02T04:20:24.607Z,4.53
2019-05-02T04:22:57.167Z,4.83
2019-05-02T04:25:27.915Z,4.58
2019-05-02T04:28:00.251Z,4.53
2019-05-02T04:30:29.782Z,5.85
2019-05-02T04:33:00.332Z,5.15
2019-05-02T04:35:34.773Z,4.33
2019-05-02T04:38:08.768Z,5.53
2019-05-02T04:40:34.925Z,5.00
2019-05-02T04:43:08.223Z,4.53
2019-05-02T04:45:51.659Z,4.58
2019-05-02T04:48:18.209Z,4.78
2019-05-02T04:50:48.828Z,4.87
2019-05-02T04:53:38.672Z,5.90
2019-05-02T04:56:07.792Z,5.58
2019-05-02T04:58:43.472Z,5.42
2019-05-02T05:01:16.481Z,4.87
2019-05-02T05:03:57.403Z,5.42
2019-05-02T05:06:28.984Z,5.58
2019-05-02T05:09:14.838Z,4.45
2019-05-02T05:11:41.092Z,4.90
2019-05-02T05:14:13.400Z,5.83
2019-05-02T05:16:45.485Z,5.08
2019-05-02T05:19:33.170Z,4.72
2019-05-02T05:22:04.701Z,5.37
2019-05-02T05:25:02.271Z,6.58
2019-05-02T05:27:32.806Z,6.97
2019-05-02T05:30:09.585Z,5.12
2019-05-02T05:32:34.029Z,5.45
2019-05-02T05:35:09.061Z,5.80
2019-05-02T05:37:53.133Z,7.87
2019-05-02T05:40:22.609Z,4.58
2019-05-02T05:42:53.670Z,4.80
2019-05-02T05:45:24.570Z,6.45
2019-05-02T05:48:01.009Z,5.15
2019-05-02T05:50:32.230Z,5.85
2019-05-02T05:53:04.459Z,4.90
2019-05-02T05:55:53.577Z,6.78
2019-05-02T05:58:22.726Z,5.70
2019-05-02T06:00:56.525Z,4.95
2019-05-02T06:03:28.651Z,7.50
2019-05-02T06:05:59.155Z,4.87
2019-05-02T06:08:33.902Z,7.90
2019-05-02T06:11:05.957Z,4.85
2019-05-02T06:13:50.616Z,5.12
2019-05-02T06:16:18.020Z,4.78
2019-05-02T06:18:47.864Z,6.25
2019-05-02T06:21:18.553Z,4.60
2019-05-02T06:23:48.808Z,5.12
2019-05-02T06:26:19.240Z,5.85
2019-05-02T06:28:50.002Z,5.17
2019-05-02T06:31:21.234Z,5.63
2019-05-02T06:33:54.798Z,6.17
2019-05-02T06:36:24.501Z,4.75
2019-05-02T06:38:56.570Z,5.05
2019-05-02T06:41:28.522Z,5.45
2019-05-02T06:43:57.728Z,6.30
2019-05-02T06:46:29.733Z,4.30
2019-05-02T06:49:00.111Z,4.28
2019-05-02T06:51:31.021Z,5.37
2019-05-02T06:54:04.200Z,5.58
2019-05-02T06:56:36.331Z,4.47
2019-05-02T06:59:06.639Z,7.00
2019-05-02T07:01:37.254Z,5.80
2019-05-02T07:04:06.490Z,5.65
2019-05-02T07:06:56.076Z,4.85
2019-05-02T07:09:08.083Z,5.15
2019-05-02T07:11:40.620Z,5.40
2019-05-02T07:14:13.491Z,4.62
2019-05-02T07:16:49.682Z,5.87
2019-05-02T07:19:32.324Z,6.42
2019-05-02T07:22:04.448Z,6.58
2019-05-02T07:24:35.007Z,6.40
2019-05-02T07:27:04.262Z,5.35
2019-05-02T10:39:44.879Z,6.90
2019-05-02T10:42:14.621Z,6.03
2019-05-02T10:44:44.626Z,6.00
2019-05-02T10:47:14.952Z,5.40
2019-05-02T10:49:52.714Z,7.17
2019-05-02T10:52:29.720Z,11.43
2019-05-02T10:54:53.660Z,7.47
2019-05-02T10:57:23.521Z,6.97
2019-05-02T10:59:56.146Z,6.97
2019-05-02T11:02:52.453Z,8.37
2019-05-02T11:05:26.574Z,6.00
2019-05-02T11:08:04.647Z,7.23
2019-05-02T11:10:32.184Z,5.77
2019-05-02T11:13:16.908Z,8.10
2019-05-02T11:16:12.391Z,7.37
2019-05-02T11:19:18.032Z,9.70
2019-05-02T11:21:56.344Z,9.57
2019-05-02T11:24:22.484Z,5.30
2019-05-02T11:26:52.805Z,5.40
2019-05-02T11:29:23.009Z,8.17
2019-05-02T11:31:52.788Z,6.30
2019-05-02T11:34:22.228Z,7.85
2019-05-02T11:36:52.717Z,5.77
2019-05-02T11:39:31.417Z,6.60
2019-05-02T11:41:55.440Z,6.50
2019-05-02T11:44:26.517Z,4.50
2019-05-02T11:46:56.175Z,7.23
2019-05-02T11:49:26.636Z,4.97
2019-05-02T11:51:57.256Z,5.73
2019-05-02T11:54:27.788Z,8.20
2019-05-02T11:56:57.012Z,6.92
2019-05-02T11:59:27.777Z,7.10
2019-05-02T12:02:18.824Z,5.78
2019-05-02T12:04:47.299Z,5.87
2019-05-02T12:07:17.893Z,5.83
2019-05-02T12:09:55.144Z,5.70
2019-05-02T12:12:22.885Z,6.70
2019-05-02T12:14:54.365Z,6.08
2019-05-02T12:17:23.619Z,5.75
2019-05-02T12:19:53.093Z,6.08
2019-05-02T12:22:22.696Z,4.97
2019-05-02T12:24:52.077Z,4.53
2019-05-02T12:27:22.097Z,7.22
2019-05-02T12:29:57.788Z,5.35
2019-05-02T12:32:25.284Z,4.65
2019-05-02T12:34:54.499Z,5.08
2019-05-02T12:37:24.137Z,5.65
2019-05-02T12:39:53.475Z,5.95
2019-05-02T12:42:24.145Z,5.83
2019-05-02T12:44:55.843Z,12.68
2019-05-02T12:47:25.304Z,5.03
2019-05-02T12:49:55.106Z,4.27
2019-05-02T12:52:25.019Z,6.35
2019-05-02T12:54:54.127Z,6.65
2019-05-02T12:57:23.747Z,5.10
2019-05-02T12:59:53.125Z,4.55
2019-05-02T13:02:32.098Z,3.47
2019-05-02T13:05:02.511Z,3.92
2019-05-02T13:07:32.329Z,5.50
2019-05-02T13:10:04.101Z,4.75
2019-05-02T13:12:38.022Z,5.28
2019-05-02T13:15:09.852Z,5.90
2019-05-02T13:17:48.701Z,3.70
2019-05-02T13:20:17.810Z,4.08
2019-05-02T13:23:00.726Z,3.80
2019-05-02T13:25:32.787Z,4.87
2019-05-02T13:28:02.941Z,3.85
2019-05-02T13:30:46.443Z,3.67
2019-05-02T13:33:27.373Z,4.78
2019-05-02T13:35:58.784Z,4.72
2019-05-02T13:38:30.373Z,5.00
2019-05-02T13:41:02.548Z,3.27
2019-05-02T13:43:38.939Z,3.60
2019-05-02T13:46:22.176Z,3.20
2019-05-02T13:48:54.393Z,4.05
2019-05-02T13:51:24.352Z,3.45
2019-05-02T13:53:58.958Z,3.30
2019-05-02T13:56:52.727Z,5.42
2019-05-02T13:59:24.495Z,4.53
2019-05-02T14:01:55.194Z,3.40
2019-05-02T14:04:25.458Z,7.37
2019-05-02T14:06:55.513Z,4.75
2019-05-02T14:09:41.368Z,4.28
2019-05-02T14:12:26.960Z,3.60
2019-05-02T14:14:57.041Z,4.27
2019-05-02T14:17:26.512Z,2.50
2019-05-02T14:20:07.750Z,2.50
2019-05-02T14:22:32.481Z,3.52
2019-05-02T14:25:02.511Z,2.95
2019-05-02T14:27:32.148Z,2.72
2019-05-02T14:30:02.537Z,4.62
2019-05-02T14:32:32.890Z,3.20
2019-05-02T14:35:28.193Z,2.70
2019-05-02T14:38:13.103Z,3.60
2019-05-02T14:40:52.933Z,3.40
2019-05-02T14:43:46.136Z,2.58
2019-05-02T14:46:12.719Z,3.80
2019-05-02T14:48:45.353Z,3.72
2019-05-02T14:51:21.975Z,3.37
2019-05-02T14:53:47.719Z,3.67
2019-05-02T14:56:28.730Z,3.98
2019-05-02T14:58:58.158Z,5.50
2019-05-02T15:01:27.663Z,3.75
2019-05-02T15:03:58.313Z,3.55
2019-05-02T15:06:32.941Z,4.33
2019-05-02T15:09:02.494Z,2.98
2019-05-02T15:11:34.839Z,4.50
2019-05-02T15:14:03.199Z,3.05
2019-05-02T15:16:40.498Z,5.17
2019-05-02T15:19:04.807Z,3.10
2019-05-02T15:21:47.056Z,3.45
2019-05-02T15:24:14.724Z,3.42
2019-05-02T15:26:45.676Z,3.58
2019-05-02T15:29:19.838Z,3.90
2019-05-02T15:31:52.814Z,3.33
2019-05-02T15:34:28.137Z,3.40
2019-05-02T15:36:57.954Z,3.58
2019-05-02T15:41:59.433Z,6.12
2019-05-02T15:44:28.599Z,3.33
2019-05-02T15:47:05.146Z,5.60
2019-05-02T15:49:32.139Z,3.25
2019-05-02T15:52:03.025Z,4.65
2019-05-02T15:54:33.160Z,3.72
2019-05-02T15:57:05.547Z,4.97
2019-05-02T15:59:37.607Z,3.50
2019-05-02T16:02:13.076Z,3.83
2019-05-02T16:04:43.049Z,3.57
2019-05-02T16:07:13.015Z,3.85
2019-05-02T16:09:43.487Z,3.60
2019-05-02T16:12:12.719Z,3.87
2019-05-02T16:14:42.687Z,6.12
2019-05-02T16:17:17.656Z,4.25
2019-05-02T16:19:52.544Z,3.45
2019-05-02T16:22:25.522Z,4.60
2019-05-02T16:25:01.550Z,3.95
2019-05-02T16:28:15.208Z,5.20
2019-05-02T16:31:01.485Z,4.78
2019-05-02T16:33:31.911Z,4.03
2019-05-02T16:36:06.829Z,5.35
2019-05-02T16:38:36.752Z,5.12
2019-05-02T16:41:09.782Z,5.67
2019-05-02T16:43:39.558Z,5.85
2019-05-02T16:46:11.856Z,4.53
2019-05-02T16:48:42.483Z,4.42
2019-05-02T16:51:30.022Z,5.03
2019-05-02T16:53:46.057Z,4.90
2019-05-02T16:56:16.394Z,5.50
2019-05-02T16:58:47.340Z,6.37
2019-05-02T17:01:26.576Z,4.70
2019-05-02T17:03:49.934Z,6.47
2019-05-02T17:06:22.438Z,6.92
2019-05-02T17:09:00.018Z,5.95
2019-05-02T17:11:36.051Z,4.62
2019-05-02T17:14:07.007Z,5.58
2019-05-02T17:16:37.757Z,5.10
2019-05-02T17:19:07.312Z,8.87
2019-05-02T17:41:37.024Z,5.33
2019-05-02T17:44:05.127Z,5.70
2019-05-02T17:46:36.342Z,5.40
2019-05-02T17:49:05.846Z,6.83
2019-05-02T17:52:04.997Z,6.20
2019-05-02T17:54:26.195Z,6.75
2019-05-02T17:56:57.538Z,10.90
2019-05-02T17:59:28.203Z,6.37
2019-05-02T18:01:58.311Z,9.25
2019-05-02T18:04:28.378Z,7.83
2019-05-02T18:06:57.545Z,6.47
2019-05-02T18:09:31.612Z,6.97
2019-05-02T18:12:01.511Z,7.47
2019-05-02T18:14:31.793Z,7.53
2019-05-02T18:17:01.879Z,8.40
2019-05-02T19:51:58.189Z,7.87
2019-05-02T19:54:31.778Z,6.70
2019-05-02T19:56:58.744Z,7.10
2019-05-02T19:59:29.668Z,7.60
2019-05-02T20:02:02.459Z,7.17
2019-05-02T20:04:32.617Z,7.17
2019-05-02T20:07:01.977Z,7.23
2019-05-02T20:09:31.936Z,8.30
2019-05-02T20:12:05.971Z,6.92
2019-05-02T20:14:38.190Z,6.35
2019-05-02T20:17:07.126Z,6.97
2019-05-02T20:19:38.606Z,6.17
2019-05-02T20:22:18.870Z,6.58
2019-05-02T20:25:01.158Z,7.83
2019-05-02T20:27:29.173Z,9.38
2019-05-02T20:30:00.234Z,6.80
2019-05-02T20:32:29.796Z,7.85
2019-05-02T20:34:59.533Z,7.37
2019-05-02T20:37:29.014Z,8.05
2019-05-02T20:39:59.838Z,6.58
2019-05-02T20:42:29.410Z,6.40
2019-05-02T20:44:59.899Z,7.65
2019-05-02T20:47:29.469Z,6.80
2019-05-02T20:49:58.674Z,6.95
2019-05-02T20:52:28.137Z,7.03
2019-05-02T20:55:01.806Z,7.45
2019-05-02T20:57:31.824Z,7.03
2019-05-02T21:00:01.845Z,7.62
2019-05-02T21:02:31.923Z,8.05
2019-05-02T21:05:02.773Z,8.28
2019-05-02T21:08:07.375Z,8.53
2019-05-02T21:10:41.627Z,9.88
2019-05-02T21:13:12.683Z,10.80
2019-05-02T21:15:42.416Z,9.97
2019-05-02T21:18:12.007Z,10.07
2019-05-02T21:20:42.123Z,7.37
2019-05-02T21:23:13.169Z,7.10
2019-05-02T21:25:43.032Z,7.65
2019-05-02T21:28:12.846Z,9.43
2019-05-02T21:30:42.485Z,9.93
2019-05-02T21:33:34.103Z,11.25
2019-05-02T21:36:04.326Z,9.15
2019-05-02T21:38:34.536Z,7.42
2019-05-02T21:41:05.970Z,6.60
2019-05-02T21:43:37.278Z,6.08
2019-05-02T21:46:07.460Z,6.47
2019-05-02T21:48:37.663Z,6.22
2019-05-02T21:51:19.863Z,6.15
2019-05-02T21:54:08.367Z,5.50
2019-05-02T21:56:44.161Z,5.05
2019-05-02T21:59:14.136Z,6.60
2019-05-02T22:01:48.883Z,4.70
2019-05-02T22:06:52.011Z,3.43
2019-05-02T22:09:23.187Z,4.17
2019-05-02T22:11:53.095Z,4.03
2019-05-02T22:14:22.888Z,3.80
2019-05-02T22:16:53.315Z,3.47
2019-05-02T22:19:22.986Z,4.30
2019-05-02T22:21:52.631Z,3.77
2019-05-02T22:24:21.810Z,3.65
2019-05-02T22:26:52.783Z,3.05
2019-05-02T22:29:25.240Z,3.37
2019-05-02T22:31:54.674Z,2.77
2019-05-02T22:34:24.225Z,3.55
2019-05-02T22:36:54.677Z,3.10
2019-05-02T22:39:45.298Z,3.50
2019-05-02T22:42:15.109Z,3.42
2019-05-02T22:44:44.186Z,3.12
2019-05-02T22:47:14.053Z,3.62
2019-05-02T22:49:43.971Z,4.10
2019-05-02T22:52:14.427Z,3.83
2019-05-02T22:54:43.831Z,3.50
2019-05-02T22:57:14.351Z,3.53
2019-05-02T22:59:43.991Z,3.42
2019-05-02T23:02:14.282Z,3.10
2019-05-02T23:04:43.441Z,2.55
2019-05-02T23:07:12.815Z,3.03
2019-05-02T23:09:43.663Z,2.40
2019-05-02T23:12:13.241Z,2.25
2019-05-02T23:14:42.882Z,2.40
2019-05-02T23:17:12.865Z,2.27
2019-05-02T23:19:42.564Z,2.20
2019-05-02T23:22:12.697Z,1.80
2019-05-02T23:25:09.027Z,2.00
2019-05-02T23:27:46.225Z,2.17
2019-05-02T23:30:18.041Z,1.92
2019-05-02T23:32:47.615Z,1.80
2019-05-02T23:35:16.772Z,1.50
2019-05-02T23:37:46.204Z,1.70
2019-05-02T23:40:16.031Z,1.70
2019-05-02T23:42:45.611Z,1.70
2019-05-02T23:45:15.038Z,1.70
2019-05-02T23:47:44.667Z,1.92
2019-05-02T23:50:15.047Z,1.50
2019-05-02T23:52:47.116Z,1.50
2019-05-02T23:55:16.314Z,1.60
2019-05-02T23:57:45.685Z,1.80
